sensor_id;sensor_type;location;lat;lon;timestamp;temperature;humidity
22680;DHT22;11507;44.858;10.374;2022-08-19T00:00:38;21.20;99.90
22680;DHT22;11507;44.858;10.374;2022-08-19T00:03:06;21.20;99.90
22680;DHT22;11507;44.858;10.374;2022-08-19T00:05:32;21.20;99.90
22680;DHT22;11507;44.858;10.374;2022-08-19T00:07:59;21.20;99.90
22680;DHT22;11507;44.858;10.374;2022-08-19T00:10:25;21.20;99.90
22680;DHT22;11507;44.858;10.374;2022-08-19T00:12:52;21.20;99.90
22680;DHT22;11507;44.858;10.374;2022-08-19T00:15:20;21.20;99.90
22680;DHT22;11507;44.858;10.374;2022-08-19T00:17:47;21.20;99.90
22680;DHT22;11507;44.858;10.374;2022-08-19T00:20:17;21.10;99.90
22680;DHT22;11507;44.858;10.374;2022-08-19T00:22:44;21.10;99.90
22680;DHT22;11507;44.858;10.374;2022-08-19T00:25:11;21.00;99.90
22680;DHT22;11507;44.858;10.374;2022-08-19T00:27:38;21.00;99.90
22680;DHT22;11507;44.858;10.374;2022-08-19T00:30:06;21.00;99.90
22680;DHT22;11507;44.858;10.374;2022-08-19T00:32:32;21.00;99.90
22680;DHT22;11507;44.858;10.374;2022-08-19T00:35:00;21.00;99.90
22680;DHT22;11507;44.858;10.374;2022-08-19T00:37:29;20.90;99.90
22680;DHT22;11507;44.858;10.374;2022-08-19T00:39:55;20.90;99.90
22680;DHT22;11507;44.858;10.374;2022-08-19T00:42:22;20.90;99.90
22680;DHT22;11507;44.858;10.374;2022-08-19T00:44:49;20.90;99.90
22680;DHT22;11507;44.858;10.374;2022-08-19T00:47:16;20.90;99.90
22680;DHT22;11507;44.858;10.374;2022-08-19T00:52:32;20.80;99.90
22680;DHT22;11507;44.858;10.374;2022-08-19T00:55:01;20.80;99.90
22680;DHT22;11507;44.858;10.374;2022-08-19T00:57:34;20.80;99.90
22680;DHT22;11507;44.858;10.374;2022-08-19T01:00:05;20.90;99.90
22680;DHT22;11507;44.858;10.374;2022-08-19T01:02:32;20.80;99.90
22680;DHT22;11507;44.858;10.374;2022-08-19T01:05:00;20.80;99.90
22680;DHT22;11507;44.858;10.374;2022-08-19T01:07:27;20.80;99.90
22680;DHT22;11507;44.858;10.374;2022-08-19T01:09:53;20.80;99.90
22680;DHT22;11507;44.858;10.374;2022-08-19T01:12:19;20.80;99.90
22680;DHT22;11507;44.858;10.374;2022-08-19T01:14:47;20.80;99.90
22680;DHT22;11507;44.858;10.374;2022-08-19T01:17:14;20.80;99.90
22680;DHT22;11507;44.858;10.374;2022-08-19T01:19:42;20.80;99.90
22680;DHT22;11507;44.858;10.374;2022-08-19T01:24:51;20.80;99.90
22680;DHT22;11507;44.858;10.374;2022-08-19T01:27:17;20.80;99.90
22680;DHT22;11507;44.858;10.374;2022-08-19T01:29:44;20.80;99.90
22680;DHT22;11507;44.858;10.374;2022-08-19T01:32:16;20.80;99.90
22680;DHT22;11507;44.858;10.374;2022-08-19T01:34:43;20.80;99.90
22680;DHT22;11507;44.858;10.374;2022-08-19T01:37:13;20.80;99.90
22680;DHT22;11507;44.858;10.374;2022-08-19T01:39:40;20.80;99.90
22680;DHT22;11507;44.858;10.374;2022-08-19T01:42:09;20.70;99.90
22680;DHT22;11507;44.858;10.374;2022-08-19T01:44:40;20.80;99.90
22680;DHT22;11507;44.858;10.374;2022-08-19T01:47:07;20.80;99.90
22680;DHT22;11507;44.858;10.374;2022-08-19T01:49:33;20.80;99.90
22680;DHT22;11507;44.858;10.374;2022-08-19T01:52:00;20.80;99.90
22680;DHT22;11507;44.858;10.374;2022-08-19T01:54:27;20.80;99.90
22680;DHT22;11507;44.858;10.374;2022-08-19T01:57:01;20.70;99.90
22680;DHT22;11507;44.858;10.374;2022-08-19T01:59:28;20.80;99.90
22680;DHT22;11507;44.858;10.374;2022-08-19T02:01:54;20.80;99.90
22680;DHT22;11507;44.858;10.374;2022-08-19T02:04:21;20.80;99.90
22680;DHT22;11507;44.858;10.374;2022-08-19T02:06:50;20.80;99.90
22680;DHT22;11507;44.858;10.374;2022-08-19T02:09:16;20.80;99.90
22680;DHT22;11507;44.858;10.374;2022-08-19T02:11:42;20.80;99.90
22680;DHT22;11507;44.858;10.374;2022-08-19T02:14:08;20.80;99.90
22680;DHT22;11507;44.858;10.374;2022-08-19T02:16:35;20.80;99.90
22680;DHT22;11507;44.858;10.374;2022-08-19T02:19:03;20.80;99.90
22680;DHT22;11507;44.858;10.374;2022-08-19T03:10:49;19.60;99.90
22680;DHT22;11507;44.858;10.374;2022-08-19T03:13:17;19.50;99.90
22680;DHT22;11507;44.858;10.374;2022-08-19T03:15:45;19.50;99.90
22680;DHT22;11507;44.858;10.374;2022-08-19T03:18:12;19.50;99.90
22680;DHT22;11507;44.858;10.374;2022-08-19T03:20:45;19.40;99.90
22680;DHT22;11507;44.858;10.374;2022-08-19T03:23:12;19.40;99.90
22680;DHT22;11507;44.858;10.374;2022-08-19T03:25:44;19.40;99.90
22680;DHT22;11507;44.858;10.374;2022-08-19T03:28:11;19.40;99.90
22680;DHT22;11507;44.858;10.374;2022-08-19T03:30:38;19.40;99.90
22680;DHT22;11507;44.858;10.374;2022-08-19T03:33:07;19.40;99.90
22680;DHT22;11507;44.858;10.374;2022-08-19T03:35:33;19.20;99.90
22680;DHT22;11507;44.858;10.374;2022-08-19T03:38:00;19.00;99.90
22680;DHT22;11507;44.858;10.374;2022-08-19T03:40:26;18.90;99.90
22680;DHT22;11507;44.858;10.374;2022-08-19T03:47:14;18.60;99.90
22680;DHT22;11507;44.858;10.374;2022-08-19T03:49:41;18.50;99.90
22680;DHT22;11507;44.858;10.374;2022-08-19T03:55:55;18.40;99.90
22680;DHT22;11507;44.858;10.374;2022-08-19T03:58:22;18.30;99.90
22680;DHT22;11507;44.858;10.374;2022-08-19T04:00:48;18.30;99.90
22680;DHT22;11507;44.858;10.374;2022-08-19T04:03:14;18.30;99.90
22680;DHT22;11507;44.858;10.374;2022-08-19T04:05:40;18.40;99.90
22680;DHT22;11507;44.858;10.374;2022-08-19T04:08:06;18.40;99.90
22680;DHT22;11507;44.858;10.374;2022-08-19T04:10:36;18.30;99.90
22680;DHT22;11507;44.858;10.374;2022-08-19T04:13:04;18.30;99.90
22680;DHT22;11507;44.858;10.374;2022-08-19T04:15:32;18.30;99.90
22680;DHT22;11507;44.858;10.374;2022-08-19T04:18:05;18.20;99.90
22680;DHT22;11507;44.858;10.374;2022-08-19T04:20:44;18.10;99.90
22680;DHT22;11507;44.858;10.374;2022-08-19T04:23:13;18.10;99.90
22680;DHT22;11507;44.858;10.374;2022-08-19T04:25:42;18.10;99.90
22680;DHT22;11507;44.858;10.374;2022-08-19T04:28:10;18.10;99.90
22680;DHT22;11507;44.858;10.374;2022-08-19T04:30:41;18.10;99.90
22680;DHT22;11507;44.858;10.374;2022-08-19T04:33:08;18.10;99.90
22680;DHT22;11507;44.858;10.374;2022-08-19T04:35:44;18.10;99.90
22680;DHT22;11507;44.858;10.374;2022-08-19T04:38:12;18.20;99.90
22680;DHT22;11507;44.858;10.374;2022-08-19T04:40:47;18.20;99.90
22680;DHT22;11507;44.858;10.374;2022-08-19T04:43:33;18.20;99.90
22680;DHT22;11507;44.858;10.374;2022-08-19T04:46:08;18.20;99.90
22680;DHT22;11507;44.858;10.374;2022-08-19T04:48:35;18.30;99.90
22680;DHT22;11507;44.858;10.374;2022-08-19T04:51:04;18.30;99.90
22680;DHT22;11507;44.858;10.374;2022-08-19T04:53:34;18.30;99.90
22680;DHT22;11507;44.858;10.374;2022-08-19T04:56:06;18.30;99.90
22680;DHT22;11507;44.858;10.374;2022-08-19T04:58:34;18.30;99.90
22680;DHT22;11507;44.858;10.374;2022-08-19T05:01:01;18.30;99.90
22680;DHT22;11507;44.858;10.374;2022-08-19T05:03:27;18.20;99.90
22680;DHT22;11507;44.858;10.374;2022-08-19T05:05:53;18.20;99.90
22680;DHT22;11507;44.858;10.374;2022-08-19T05:08:20;18.20;99.90
22680;DHT22;11507;44.858;10.374;2022-08-19T05:10:49;18.20;99.90
22680;DHT22;11507;44.858;10.374;2022-08-19T05:13:17;18.20;99.90
22680;DHT22;11507;44.858;10.374;2022-08-19T05:15:44;18.20;99.90
22680;DHT22;11507;44.858;10.374;2022-08-19T05:18:10;18.30;99.90
22680;DHT22;11507;44.858;10.374;2022-08-19T05:20:55;18.40;99.90
22680;DHT22;11507;44.858;10.374;2022-08-19T05:23:39;18.30;99.90
22680;DHT22;11507;44.858;10.374;2022-08-19T05:26:06;18.20;99.90
22680;DHT22;11507;44.858;10.374;2022-08-19T05:28:32;18.20;99.90
22680;DHT22;11507;44.858;10.374;2022-08-19T05:30:58;18.20;99.90
22680;DHT22;11507;44.858;10.374;2022-08-19T05:33:24;18.20;99.90
22680;DHT22;11507;44.858;10.374;2022-08-19T05:35:51;18.20;99.90
22680;DHT22;11507;44.858;10.374;2022-08-19T05:38:18;18.10;99.90
22680;DHT22;11507;44.858;10.374;2022-08-19T05:40:44;18.10;99.90
22680;DHT22;11507;44.858;10.374;2022-08-19T05:43:15;18.10;99.90
22680;DHT22;11507;44.858;10.374;2022-08-19T05:45:42;18.10;99.90
22680;DHT22;11507;44.858;10.374;2022-08-19T05:48:11;18.10;99.90
22680;DHT22;11507;44.858;10.374;2022-08-19T05:50:41;18.10;99.90
22680;DHT22;11507;44.858;10.374;2022-08-19T05:53:08;18.00;99.90
22680;DHT22;11507;44.858;10.374;2022-08-19T05:55:34;18.00;99.90
22680;DHT22;11507;44.858;10.374;2022-08-19T05:58:02;18.00;99.90
22680;DHT22;11507;44.858;10.374;2022-08-19T06:00:28;18.00;99.90
22680;DHT22;11507;44.858;10.374;2022-08-19T06:02:56;18.00;99.90
22680;DHT22;11507;44.858;10.374;2022-08-19T06:05:29;17.90;99.90
22680;DHT22;11507;44.858;10.374;2022-08-19T06:07:55;17.90;99.90
22680;DHT22;11507;44.858;10.374;2022-08-19T06:10:21;17.80;99.90
22680;DHT22;11507;44.858;10.374;2022-08-19T06:12:49;17.80;99.90
22680;DHT22;11507;44.858;10.374;2022-08-19T06:15:15;17.80;99.90
22680;DHT22;11507;44.858;10.374;2022-08-19T06:17:42;17.90;99.90
22680;DHT22;11507;44.858;10.374;2022-08-19T06:20:12;17.90;99.90
22680;DHT22;11507;44.858;10.374;2022-08-19T06:22:43;17.80;99.90
22680;DHT22;11507;44.858;10.374;2022-08-19T06:25:11;17.80;99.90
22680;DHT22;11507;44.858;10.374;2022-08-19T06:27:37;17.90;99.90
22680;DHT22;11507;44.858;10.374;2022-08-19T06:30:04;17.80;99.90
22680;DHT22;11507;44.858;10.374;2022-08-19T06:32:30;17.90;99.90
22680;DHT22;11507;44.858;10.374;2022-08-19T06:34:56;17.80;99.90
22680;DHT22;11507;44.858;10.374;2022-08-19T06:37:24;17.80;99.90
22680;DHT22;11507;44.858;10.374;2022-08-19T06:39:50;17.80;99.90
22680;DHT22;11507;44.858;10.374;2022-08-19T06:42:16;17.80;99.90
22680;DHT22;11507;44.858;10.374;2022-08-19T06:44:47;17.80;99.90
22680;DHT22;11507;44.858;10.374;2022-08-19T06:47:20;17.80;99.90
22680;DHT22;11507;44.858;10.374;2022-08-19T06:49:46;17.80;99.90
22680;DHT22;11507;44.858;10.374;2022-08-19T06:52:12;17.80;99.90
22680;DHT22;11507;44.858;10.374;2022-08-19T06:54:39;17.80;99.90
22680;DHT22;11507;44.858;10.374;2022-08-19T06:57:05;17.80;99.90
22680;DHT22;11507;44.858;10.374;2022-08-19T06:59:33;17.90;99.90
22680;DHT22;11507;44.858;10.374;2022-08-19T07:02:03;17.90;99.90
22680;DHT22;11507;44.858;10.374;2022-08-19T07:04:32;17.90;99.90
22680;DHT22;11507;44.858;10.374;2022-08-19T07:07:09;18.00;99.90
22680;DHT22;11507;44.858;10.374;2022-08-19T07:09:39;18.00;99.90
22680;DHT22;11507;44.858;10.374;2022-08-19T07:12:07;18.00;99.90
22680;DHT22;11507;44.858;10.374;2022-08-19T07:14:36;18.00;99.90
22680;DHT22;11507;44.858;10.374;2022-08-19T07:17:08;18.10;99.90
22680;DHT22;11507;44.858;10.374;2022-08-19T07:19:35;18.10;99.90
22680;DHT22;11507;44.858;10.374;2022-08-19T07:22:04;18.20;99.90
22680;DHT22;11507;44.858;10.374;2022-08-19T07:24:31;18.20;99.90
22680;DHT22;11507;44.858;10.374;2022-08-19T07:26:59;18.40;99.90
22680;DHT22;11507;44.858;10.374;2022-08-19T07:29:28;18.40;99.90
22680;DHT22;11507;44.858;10.374;2022-08-19T07:31:56;18.40;99.90
22680;DHT22;11507;44.858;10.374;2022-08-19T07:34:23;18.40;99.90
22680;DHT22;11507;44.858;10.374;2022-08-19T07:36:49;18.50;99.90
22680;DHT22;11507;44.858;10.374;2022-08-19T07:39:22;18.60;99.90
22680;DHT22;11507;44.858;10.374;2022-08-19T07:41:48;18.70;99.90
22680;DHT22;11507;44.858;10.374;2022-08-19T07:44:18;18.80;99.90
22680;DHT22;11507;44.858;10.374;2022-08-19T07:46:49;19.00;99.90
22680;DHT22;11507;44.858;10.374;2022-08-19T07:49:16;19.20;99.90
22680;DHT22;11507;44.858;10.374;2022-08-19T07:51:57;19.30;99.90
22680;DHT22;11507;44.858;10.374;2022-08-19T07:54:25;19.40;99.90
22680;DHT22;11507;44.858;10.374;2022-08-19T07:56:52;19.50;99.90
22680;DHT22;11507;44.858;10.374;2022-08-19T07:59:19;19.60;99.90
22680;DHT22;11507;44.858;10.374;2022-08-19T08:01:46;19.80;99.90
22680;DHT22;11507;44.858;10.374;2022-08-19T08:04:13;19.90;99.90
22680;DHT22;11507;44.858;10.374;2022-08-19T08:06:58;20.00;99.90
22680;DHT22;11507;44.858;10.374;2022-08-19T08:09:44;20.20;99.90
22680;DHT22;11507;44.858;10.374;2022-08-19T08:12:16;20.30;99.90
22680;DHT22;11507;44.858;10.374;2022-08-19T08:14:46;20.40;99.90
22680;DHT22;11507;44.858;10.374;2022-08-19T08:17:17;20.50;99.90
22680;DHT22;11507;44.858;10.374;2022-08-19T08:19:46;20.60;99.90
22680;DHT22;11507;44.858;10.374;2022-08-19T08:22:15;20.80;99.90
22680;DHT22;11507;44.858;10.374;2022-08-19T08:25:18;20.90;99.90
22680;DHT22;11507;44.858;10.374;2022-08-19T08:27:46;21.10;99.90
22680;DHT22;11507;44.858;10.374;2022-08-19T08:30:21;21.20;99.90
22680;DHT22;11507;44.858;10.374;2022-08-19T08:32:50;21.40;99.90
22680;DHT22;11507;44.858;10.374;2022-08-19T08:35:20;21.40;99.90
22680;DHT22;11507;44.858;10.374;2022-08-19T08:37:47;21.50;99.90
22680;DHT22;11507;44.858;10.374;2022-08-19T08:45:34;21.50;99.90
22680;DHT22;11507;44.858;10.374;2022-08-19T08:48:07;21.60;99.90
22680;DHT22;11507;44.858;10.374;2022-08-19T08:50:41;21.50;99.90
22680;DHT22;11507;44.858;10.374;2022-08-19T08:53:09;21.50;99.90
22680;DHT22;11507;44.858;10.374;2022-08-19T08:55:36;21.50;99.90
22680;DHT22;11507;44.858;10.374;2022-08-19T08:58:10;21.60;99.90
22680;DHT22;11507;44.858;10.374;2022-08-19T09:00:44;21.80;99.90
22680;DHT22;11507;44.858;10.374;2022-08-19T09:03:24;22.00;99.90
22680;DHT22;11507;44.858;10.374;2022-08-19T09:06:00;21.90;99.90
22680;DHT22;11507;44.858;10.374;2022-08-19T09:08:48;22.10;99.90
22680;DHT22;11507;44.858;10.374;2022-08-19T09:11:51;22.10;99.90
22680;DHT22;11507;44.858;10.374;2022-08-19T09:17:24;22.30;99.90
22680;DHT22;11507;44.858;10.374;2022-08-19T09:20:02;22.30;99.90
22680;DHT22;11507;44.858;10.374;2022-08-19T09:22:35;22.50;99.90
22680;DHT22;11507;44.858;10.374;2022-08-19T09:25:02;22.50;99.90
22680;DHT22;11507;44.858;10.374;2022-08-19T09:27:29;22.60;99.90
22680;DHT22;11507;44.858;10.374;2022-08-19T09:29:55;22.60;99.90
22680;DHT22;11507;44.858;10.374;2022-08-19T09:32:22;22.60;99.90
22680;DHT22;11507;44.858;10.374;2022-08-19T09:34:48;22.70;99.90
22680;DHT22;11507;44.858;10.374;2022-08-19T09:37:14;22.90;99.90
22680;DHT22;11507;44.858;10.374;2022-08-19T09:39:41;23.10;99.90
22680;DHT22;11507;44.858;10.374;2022-08-19T09:42:08;23.10;99.90
22680;DHT22;11507;44.858;10.374;2022-08-19T09:44:40;23.20;99.90
22680;DHT22;11507;44.858;10.374;2022-08-19T09:47:07;23.30;99.90
22680;DHT22;11507;44.858;10.374;2022-08-19T09:49:33;23.20;99.90
22680;DHT22;11507;44.858;10.374;2022-08-19T09:52:01;23.20;99.90
22680;DHT22;11507;44.858;10.374;2022-08-19T09:54:28;23.20;99.90
22680;DHT22;11507;44.858;10.374;2022-08-19T09:56:55;23.10;99.90
22680;DHT22;11507;44.858;10.374;2022-08-19T09:59:23;23.10;99.90
22680;DHT22;11507;44.858;10.374;2022-08-19T10:01:51;23.10;99.90
22680;DHT22;11507;44.858;10.374;2022-08-19T10:04:18;23.10;99.90
22680;DHT22;11507;44.858;10.374;2022-08-19T10:06:49;23.20;99.90
22680;DHT22;11507;44.858;10.374;2022-08-19T10:09:17;23.40;99.90
22680;DHT22;11507;44.858;10.374;2022-08-19T10:11:45;23.40;99.90
22680;DHT22;11507;44.858;10.374;2022-08-19T10:14:16;23.30;99.90
22680;DHT22;11507;44.858;10.374;2022-08-19T10:16:42;23.20;99.90
22680;DHT22;11507;44.858;10.374;2022-08-19T10:19:09;23.10;99.90
22680;DHT22;11507;44.858;10.374;2022-08-19T10:21:37;23.20;99.90
22680;DHT22;11507;44.858;10.374;2022-08-19T10:24:05;23.30;99.90
22680;DHT22;11507;44.858;10.374;2022-08-19T10:26:34;23.40;99.90
22680;DHT22;11507;44.858;10.374;2022-08-19T10:29:03;23.70;99.90
22680;DHT22;11507;44.858;10.374;2022-08-19T10:31:32;23.80;99.90
22680;DHT22;11507;44.858;10.374;2022-08-19T10:34:00;23.90;99.90
22680;DHT22;11507;44.858;10.374;2022-08-19T10:36:32;24.10;99.90
22680;DHT22;11507;44.858;10.374;2022-08-19T10:39:01;24.40;99.90
22680;DHT22;11507;44.858;10.374;2022-08-19T10:41:31;24.70;99.90
22680;DHT22;11507;44.858;10.374;2022-08-19T10:44:01;25.20;99.90
22680;DHT22;11507;44.858;10.374;2022-08-19T10:46:28;25.70;99.90
22680;DHT22;11507;44.858;10.374;2022-08-19T10:48:57;26.00;99.90
22680;DHT22;11507;44.858;10.374;2022-08-19T10:51:26;26.10;99.90
22680;DHT22;11507;44.858;10.374;2022-08-19T10:54:11;26.30;99.90
22680;DHT22;11507;44.858;10.374;2022-08-19T10:56:38;26.40;99.90
22680;DHT22;11507;44.858;10.374;2022-08-19T10:59:25;27.00;99.90
22680;DHT22;11507;44.858;10.374;2022-08-19T11:01:52;27.50;99.90
22680;DHT22;11507;44.858;10.374;2022-08-19T11:04:19;28.10;99.90
22680;DHT22;11507;44.858;10.374;2022-08-19T11:06:49;28.30;99.90
22680;DHT22;11507;44.858;10.374;2022-08-19T11:09:17;28.40;99.90
22680;DHT22;11507;44.858;10.374;2022-08-19T11:11:43;28.80;99.90
22680;DHT22;11507;44.858;10.374;2022-08-19T11:14:13;29.10;99.90
22680;DHT22;11507;44.858;10.374;2022-08-19T11:16:41;29.40;99.90
22680;DHT22;11507;44.858;10.374;2022-08-19T11:19:09;29.60;99.90
22680;DHT22;11507;44.858;10.374;2022-08-19T11:21:39;29.50;99.90
22680;DHT22;11507;44.858;10.374;2022-08-19T11:24:14;29.80;99.90
22680;DHT22;11507;44.858;10.374;2022-08-19T11:26:42;30.00;99.90
22680;DHT22;11507;44.858;10.374;2022-08-19T11:29:12;29.80;99.50
22680;DHT22;11507;44.858;10.374;2022-08-19T11:31:42;30.00;99.90
22680;DHT22;11507;44.858;10.374;2022-08-19T11:34:12;30.30;99.90
22680;DHT22;11507;44.858;10.374;2022-08-19T11:36:41;30.50;99.90
22680;DHT22;11507;44.858;10.374;2022-08-19T11:39:11;30.70;99.90
22680;DHT22;11507;44.858;10.374;2022-08-19T11:41:37;30.90;99.90
22680;DHT22;11507;44.858;10.374;2022-08-19T11:44:03;30.80;98.00
22680;DHT22;11507;44.858;10.374;2022-08-19T11:46:30;31.00;99.90
22680;DHT22;11507;44.858;10.374;2022-08-19T11:48:57;31.30;99.90
22680;DHT22;11507;44.858;10.374;2022-08-19T11:51:25;31.20;96.40
22680;DHT22;11507;44.858;10.374;2022-08-19T11:53:54;31.20;96.30
22680;DHT22;11507;44.858;10.374;2022-08-19T11:56:22;31.30;93.00
22680;DHT22;11507;44.858;10.374;2022-08-19T11:58:48;31.60;98.60
22680;DHT22;11507;44.858;10.374;2022-08-19T12:01:16;32.10;95.20
22680;DHT22;11507;44.858;10.374;2022-08-19T12:03:45;32.40;97.10
22680;DHT22;11507;44.858;10.374;2022-08-19T12:06:16;32.60;97.70
22680;DHT22;11507;44.858;10.374;2022-08-19T12:08:44;32.80;94.70
22680;DHT22;11507;44.858;10.374;2022-08-19T12:11:11;32.70;93.40
22680;DHT22;11507;44.858;10.374;2022-08-19T12:13:38;32.50;91.10
22680;DHT22;11507;44.858;10.374;2022-08-19T12:16:10;32.30;91.40
22680;DHT22;11507;44.858;10.374;2022-08-19T12:18:38;32.10;91.00
22680;DHT22;11507;44.858;10.374;2022-08-19T12:21:06;31.70;92.00
22680;DHT22;11507;44.858;10.374;2022-08-19T12:23:33;31.80;92.40
22680;DHT22;11507;44.858;10.374;2022-08-19T12:25:59;31.90;92.90
22680;DHT22;11507;44.858;10.374;2022-08-19T12:28:25;31.90;93.60
22680;DHT22;11507;44.858;10.374;2022-08-19T12:30:52;31.60;93.10
22680;DHT22;11507;44.858;10.374;2022-08-19T12:33:19;30.90;92.70
22680;DHT22;11507;44.858;10.374;2022-08-19T12:35:50;30.30;93.10
22680;DHT22;11507;44.858;10.374;2022-08-19T12:38:17;29.70;94.50
22680;DHT22;11507;44.858;10.374;2022-08-19T12:40:47;29.50;94.30
22680;DHT22;11507;44.858;10.374;2022-08-19T12:43:14;29.20;96.40
22680;DHT22;11507;44.858;10.374;2022-08-19T12:45:41;29.00;97.10
22680;DHT22;11507;44.858;10.374;2022-08-19T12:48:08;28.80;98.90
22680;DHT22;11507;44.858;10.374;2022-08-19T12:50:34;28.90;99.90
22680;DHT22;11507;44.858;10.374;2022-08-19T12:53:01;29.10;98.20
22680;DHT22;11507;44.858;10.374;2022-08-19T12:55:27;29.60;99.20
22680;DHT22;11507;44.858;10.374;2022-08-19T12:57:54;30.50;99.90
22680;DHT22;11507;44.858;10.374;2022-08-19T13:00:21;31.20;96.50
22680;DHT22;11507;44.858;10.374;2022-08-19T13:02:50;31.30;92.70
22680;DHT22;11507;44.858;10.374;2022-08-19T13:05:22;31.20;92.60
22680;DHT22;11507;44.858;10.374;2022-08-19T13:07:50;30.90;94.40
22680;DHT22;11507;44.858;10.374;2022-08-19T13:10:19;30.70;92.20
22680;DHT22;11507;44.858;10.374;2022-08-19T13:12:48;30.50;95.50
22680;DHT22;11507;44.858;10.374;2022-08-19T13:15:15;30.00;93.20
22680;DHT22;11507;44.858;10.374;2022-08-19T13:17:47;29.60;93.40
22680;DHT22;11507;44.858;10.374;2022-08-19T13:20:16;29.60;95.10
22680;DHT22;11507;44.858;10.374;2022-08-19T13:22:42;29.50;96.80
22680;DHT22;11507;44.858;10.374;2022-08-19T13:25:10;29.60;97.20
22680;DHT22;11507;44.858;10.374;2022-08-19T13:27:37;29.90;97.10
22680;DHT22;11507;44.858;10.374;2022-08-19T13:30:04;29.90;96.70
22680;DHT22;11507;44.858;10.374;2022-08-19T13:32:50;29.40;97.30
22680;DHT22;11507;44.858;10.374;2022-08-19T13:35:34;28.80;98.90
22680;DHT22;11507;44.858;10.374;2022-08-19T13:38:00;28.30;98.70
22680;DHT22;11507;44.858;10.374;2022-08-19T13:40:32;27.90;99.20
22680;DHT22;11507;44.858;10.374;2022-08-19T13:42:59;27.70;99.90
22680;DHT22;11507;44.858;10.374;2022-08-19T13:45:27;27.60;99.90
22680;DHT22;11507;44.858;10.374;2022-08-19T13:47:56;27.60;99.90
22680;DHT22;11507;44.858;10.374;2022-08-19T13:50:30;27.70;99.90
22680;DHT22;11507;44.858;10.374;2022-08-19T13:53:00;28.40;99.90
22680;DHT22;11507;44.858;10.374;2022-08-19T13:55:26;29.50;98.30
22680;DHT22;11507;44.858;10.374;2022-08-19T13:57:55;30.50;93.90
22680;DHT22;11507;44.858;10.374;2022-08-19T14:00:26;31.50;91.70
22680;DHT22;11507;44.858;10.374;2022-08-19T14:02:55;32.70;93.20
22680;DHT22;11507;44.858;10.374;2022-08-19T14:05:22;33.30;87.20
22680;DHT22;11507;44.858;10.374;2022-08-19T14:07:48;33.80;87.70
22680;DHT22;11507;44.858;10.374;2022-08-19T14:10:16;34.20;89.50
22680;DHT22;11507;44.858;10.374;2022-08-19T14:12:42;34.60;91.70
22680;DHT22;11507;44.858;10.374;2022-08-19T14:15:09;35.00;86.50
22680;DHT22;11507;44.858;10.374;2022-08-19T14:17:38;34.90;83.50
22680;DHT22;11507;44.858;10.374;2022-08-19T14:20:06;35.30;89.10
22680;DHT22;11507;44.858;10.374;2022-08-19T14:22:37;35.40;87.10
22680;DHT22;11507;44.858;10.374;2022-08-19T14:25:05;35.60;86.10
22680;DHT22;11507;44.858;10.374;2022-08-19T14:27:36;35.90;86.70
22680;DHT22;11507;44.858;10.374;2022-08-19T14:30:03;36.60;86.40
22680;DHT22;11507;44.858;10.374;2022-08-19T14:32:29;37.20;81.20
22680;DHT22;11507;44.858;10.374;2022-08-19T14:34:55;37.60;76.10
22680;DHT22;11507;44.858;10.374;2022-08-19T14:37:21;37.20;75.70
22680;DHT22;11507;44.858;10.374;2022-08-19T14:39:48;37.10;77.40
22680;DHT22;11507;44.858;10.374;2022-08-19T14:42:14;37.10;76.50
22680;DHT22;11507;44.858;10.374;2022-08-19T14:44:41;37.00;75.40
22680;DHT22;11507;44.858;10.374;2022-08-19T14:47:07;36.60;71.70
22680;DHT22;11507;44.858;10.374;2022-08-19T14:49:34;36.30;75.70
22680;DHT22;11507;44.858;10.374;2022-08-19T14:52:01;35.90;78.90
22680;DHT22;11507;44.858;10.374;2022-08-19T14:54:28;35.60;77.00
22680;DHT22;11507;44.858;10.374;2022-08-19T14:56:54;35.10;78.60
22680;DHT22;11507;44.858;10.374;2022-08-19T14:59:20;34.60;79.10
22680;DHT22;11507;44.858;10.374;2022-08-19T15:01:45;34.40;79.00
22680;DHT22;11507;44.858;10.374;2022-08-19T15:04:12;34.10;79.00
22680;DHT22;11507;44.858;10.374;2022-08-19T15:06:38;33.90;83.60
22680;DHT22;11507;44.858;10.374;2022-08-19T15:09:04;34.40;82.90
22680;DHT22;11507;44.858;10.374;2022-08-19T15:11:31;34.70;80.00
22680;DHT22;11507;44.858;10.374;2022-08-19T15:13:58;34.90;75.90
22680;DHT22;11507;44.858;10.374;2022-08-19T15:16:26;35.30;76.90
22680;DHT22;11507;44.858;10.374;2022-08-19T15:18:55;35.50;76.10
22680;DHT22;11507;44.858;10.374;2022-08-19T15:21:22;35.40;74.00
22680;DHT22;11507;44.858;10.374;2022-08-19T15:23:50;35.00;76.50
22680;DHT22;11507;44.858;10.374;2022-08-19T15:26:17;34.30;77.20
22680;DHT22;11507;44.858;10.374;2022-08-19T15:28:44;34.10;81.20
22680;DHT22;11507;44.858;10.374;2022-08-19T15:31:11;34.10;80.60
22680;DHT22;11507;44.858;10.374;2022-08-19T15:33:39;34.20;78.50
22680;DHT22;11507;44.858;10.374;2022-08-19T15:36:09;34.20;78.20
22680;DHT22;11507;44.858;10.374;2022-08-19T15:38:36;34.40;81.10
22680;DHT22;11507;44.858;10.374;2022-08-19T15:41:03;34.40;77.30
22680;DHT22;11507;44.858;10.374;2022-08-19T15:43:53;34.70;80.70
22680;DHT22;11507;44.858;10.374;2022-08-19T15:46:23;34.90;78.40
22680;DHT22;11507;44.858;10.374;2022-08-19T15:48:50;35.20;77.90
22680;DHT22;11507;44.858;10.374;2022-08-19T15:51:17;35.50;77.60
22680;DHT22;11507;44.858;10.374;2022-08-19T15:53:44;35.50;75.60
22680;DHT22;11507;44.858;10.374;2022-08-19T15:56:11;35.10;74.30
22680;DHT22;11507;44.858;10.374;2022-08-19T15:58:37;34.50;75.60
22680;DHT22;11507;44.858;10.374;2022-08-19T16:01:22;33.30;79.50
22680;DHT22;11507;44.858;10.374;2022-08-19T16:03:59;32.50;80.80
22680;DHT22;11507;44.858;10.374;2022-08-19T16:06:53;31.90;83.10
22680;DHT22;11507;44.858;10.374;2022-08-19T16:09:21;31.10;85.20
22680;DHT22;11507;44.858;10.374;2022-08-19T16:11:47;30.70;85.60
22680;DHT22;11507;44.858;10.374;2022-08-19T16:14:14;30.30;89.40
22680;DHT22;11507;44.858;10.374;2022-08-19T16:16:42;30.10;89.50
22680;DHT22;11507;44.858;10.374;2022-08-19T16:19:12;29.90;90.70
22680;DHT22;11507;44.858;10.374;2022-08-19T16:21:43;29.70;91.40
22680;DHT22;11507;44.858;10.374;2022-08-19T16:24:11;29.50;92.10
22680;DHT22;11507;44.858;10.374;2022-08-19T16:26:39;29.20;92.10
22680;DHT22;11507;44.858;10.374;2022-08-19T16:29:05;29.00;94.20
22680;DHT22;11507;44.858;10.374;2022-08-19T16:31:33;28.80;94.40
22680;DHT22;11507;44.858;10.374;2022-08-19T16:33:59;28.70;95.70
22680;DHT22;11507;44.858;10.374;2022-08-19T16:36:25;28.50;97.10